Time;durP1;ratioP1;P1;durP2;ratioP2;P2;SDS_P1;SDS_P2;PMS_P1;PMS_P2;Temp;Humidity;BMP_temperature;BMP_pressure;BME280_temperature;BME280_humidity;BME280_pressure;Samples;Min_cycle;Max_cycle;Signal;HPM_P1;HPM_P2
2024/01/28 00:01:33;;;;;;;;;;;;;;;5.59;55.08;102055.94;5373240;32;35325;-64
2024/01/28 00:04:36;;;;;;;;;;;;;;;4.79;56.71;102057.81;5367760;32;34426;-65
2024/01/28 00:07:38;;;;;;;;;;;;;;;4.73;57.37;102069.88;5370948;32;34893;-62
2024/01/28 00:10:41;;;;;;;;;;;;;;;5.05;56.23;102057.22;5371454;32;34930;-62
2024/01/28 00:13:43;;;;;;;;;;;;;;;5.18;55.78;102053.87;5357073;32;34883;-66
2024/01/28 00:16:45;;;;;;;;;;;;;;;5.03;56.39;102057.19;5360731;32;35150;-67
2024/01/28 00:19:47;;;;;;;;;;;;;;;4.85;55.98;102063.09;5369866;32;34423;-63
2024/01/28 00:22:50;;;;;;;;;;;;;;;4.78;57.06;102061.28;5368946;32;34278;-62
2024/01/28 00:25:52;;;;;;;;;;;;;;;4.57;57.20;102072.31;5359359;32;34497;-67
2024/01/28 00:28:54;;;;;;;;;;;;;;;4.89;56.26;102077.91;5369062;32;34990;-64
2024/01/28 00:31:56;;;;;;;;;;;;;;;4.47;57.53;102086.06;5371554;32;34445;-66
2024/01/28 00:34:58;;;;;;;;;;;;;;;4.85;56.39;102081.31;5369350;32;34754;-61
2024/01/28 00:38:02;;;;;;;;;;;;;;;4.85;56.14;102072.62;5371738;32;35055;-63
2024/01/28 00:41:05;;;;;;;;;;;;;;;4.49;57.15;102079.12;5349783;32;34737;-66
2024/01/28 00:44:07;;;;;;;;;;;;;;;5.16;55.65;102086.88;5374177;32;34519;-65
2024/01/28 00:47:09;;;;;;;;;;;;;;;5.24;55.43;102080.00;5367272;32;34761;-64
2024/01/28 00:50:11;;;;;;;;;;;;;;;5.28;54.84;102092.22;5356533;32;34453;-65
2024/01/28 00:53:14;;;;;;;;;;;;;;;4.42;57.50;102102.47;5371154;32;34318;-66
2024/01/28 00:56:17;;;;;;;;;;;;;;;4.74;56.46;102089.88;5354022;32;35116;-65
2024/01/28 00:59:19;;;;;;;;;;;;;;;4.89;55.91;102088.31;5373550;32;34407;-65
2024/01/28 01:02:21;;;;;;;;;;;;;;;4.86;55.88;102096.09;5364160;32;35438;-66
2024/01/28 01:05:23;;;;;;;;;;;;;;;5.43;54.05;102089.75;5369816;32;34967;-64
2024/01/28 01:08:26;;;;;;;;;;;;;;;4.87;54.66;102096.97;5368660;32;34804;-63
2024/01/28 01:11:28;;;;;;;;;;;;;;;5.00;54.08;102097.97;5355237;32;35018;-62
2024/01/28 01:14:35;;;;;;;;;;;;;;;5.21;53.50;102099.94;5372800;32;34423;-66
2024/01/28 01:17:37;;;;;;;;;;;;;;;4.98;54.04;102102.31;5354903;32;34252;-67
2024/01/28 01:20:39;;;;;;;;;;;;;;;4.54;55.15;102100.03;5373941;32;34862;-64
2024/01/28 01:23:42;;;;;;;;;;;;;;;4.22;55.77;102104.81;5358838;32;34313;-62
2024/01/28 01:26:44;;;;;;;;;;;;;;;4.43;55.51;102105.09;5367733;32;34784;-64
2024/01/28 01:29:46;;;;;;;;;;;;;;;5.02;54.54;102111.87;5367732;32;34808;-62
2024/01/28 01:32:48;;;;;;;;;;;;;;;4.79;54.93;102091.66;5368850;32;35474;-63
2024/01/28 01:35:50;;;;;;;;;;;;;;;4.93;53.99;102098.78;5373180;32;35485;-64
2024/01/28 01:38:52;;;;;;;;;;;;;;;4.37;55.73;102105.00;5361850;32;34907;-62
2024/01/28 01:41:55;;;;;;;;;;;;;;;5.01;54.47;102099.72;5371374;32;34647;-62
2024/01/28 01:44:57;;;;;;;;;;;;;;;4.43;55.55;102123.31;5355365;32;35036;-66
2024/01/28 01:47:59;;;;;;;;;;;;;;;4.77;54.82;102111.63;5373103;32;34634;-65
2024/01/28 01:51:02;;;;;;;;;;;;;;;5.11;53.98;102112.88;5354478;32;34958;-63
2024/01/28 01:54:04;;;;;;;;;;;;;;;4.65;54.48;102118.41;5355023;32;34546;-66
2024/01/28 01:57:07;;;;;;;;;;;;;;;4.66;54.62;102120.16;5358259;32;34240;-66
2024/01/28 02:00:12;;;;;;;;;;;;;;;4.48;55.27;102126.88;5354640;32;34720;-62
2024/01/28 02:03:14;;;;;;;;;;;;;;;4.38;55.41;102132.81;5371222;32;34141;-62
2024/01/28 02:06:17;;;;;;;;;;;;;;;4.38;55.22;102122.41;5353491;32;34824;-63
2024/01/28 02:09:19;;;;;;;;;;;;;;;4.61;54.71;102112.28;5372076;32;35479;-65
2024/01/28 02:12:21;;;;;;;;;;;;;;;4.85;53.67;102104.78;5355532;32;35002;-65
2024/01/28 02:15:23;;;;;;;;;;;;;;;4.59;54.13;102112.25;5368396;32;35341;-64
2024/01/28 02:18:26;;;;;;;;;;;;;;;4.47;54.54;102117.31;5372506;32;34838;-65
2024/01/28 02:21:28;;;;;;;;;;;;;;;4.32;54.74;102115.38;5369786;32;34782;-66
2024/01/28 02:24:30;;;;;;;;;;;;;;;5.03;53.03;102119.75;5369701;32;34928;-62
2024/01/28 02:27:34;;;;;;;;;;;;;;;4.52;53.75;102128.66;5365132;32;34482;-66
2024/01/28 02:30:36;;;;;;;;;;;;;;;5.19;52.56;102125.13;5358362;32;34237;-64
2024/01/28 02:33:38;;;;;;;;;;;;;;;4.58;53.62;102138.28;5371354;32;34407;-65
2024/01/28 02:36:41;;;;;;;;;;;;;;;4.78;53.21;102144.63;5369863;32;35408;-65
2024/01/28 02:39:43;;;;;;;;;;;;;;;4.40;53.83;102151.06;5365370;32;35209;-65
2024/01/28 02:42:45;;;;;;;;;;;;;;;4.68;53.55;102149.69;5355999;32;35896;-63
2024/01/28 02:45:47;;;;;;;;;;;;;;;4.66;53.56;102162.69;5375071;32;34680;-65
2024/01/28 02:48:51;;;;;;;;;;;;;;;4.46;53.45;102167.62;5370137;32;35340;-65
2024/01/28 02:51:53;;;;;;;;;;;;;;;4.28;54.47;102173.44;5371929;32;35740;-63
2024/01/28 02:54:57;;;;;;;;;;;;;;;4.43;53.91;102164.97;5358708;32;35114;-67
2024/01/28 02:57:59;;;;;;;;;;;;;;;4.35;54.05;102169.19;5367967;32;35640;-64
2024/01/28 03:01:01;;;;;;;;;;;;;;;4.24;54.75;102152.53;5374191;32;34692;-62
2024/01/28 03:04:04;;;;;;;;;;;;;;;4.67;53.73;102159.25;5367953;32;34273;-63
2024/01/28 03:07:06;;;;;;;;;;;;;;;4.33;54.02;102166.59;5375719;32;35045;-62
2024/01/28 03:10:09;;;;;;;;;;;;;;;4.31;54.82;102173.47;5355621;32;34347;-65
2024/01/28 03:13:11;;;;;;;;;;;;;;;4.96;52.82;102163.94;5371479;32;34933;-65
2024/01/28 03:16:13;;;;;;;;;;;;;;;4.40;53.86;102171.88;5372971;32;34493;-66
2024/01/28 03:19:16;;;;;;;;;;;;;;;4.31;54.73;102164.78;5370785;32;35117;-64
2024/01/28 03:22:18;;;;;;;;;;;;;;;4.92;53.06;102162.16;5368493;32;35588;-68
2024/01/28 03:25:20;;;;;;;;;;;;;;;4.63;52.86;102160.03;5360351;32;35437;-61
2024/01/28 03:28:22;;;;;;;;;;;;;;;4.56;53.72;102163.41;5371098;32;35429;-62
2024/01/28 03:31:24;;;;;;;;;;;;;;;4.89;52.58;102161.28;5355319;32;34775;-65
2024/01/28 03:34:27;;;;;;;;;;;;;;;5.29;51.60;102148.72;5357766;32;34294;-65
2024/01/28 03:37:29;;;;;;;;;;;;;;;4.36;53.78;102168.34;5373233;32;35014;-65
2024/01/28 03:40:31;;;;;;;;;;;;;;;4.43;53.36;102161.50;5360583;32;34692;-62
2024/01/28 03:43:33;;;;;;;;;;;;;;;4.76;52.44;102171.50;5374244;32;34757;-62
2024/01/28 03:46:37;;;;;;;;;;;;;;;4.56;53.22;102169.50;5370342;32;34266;-64
2024/01/28 03:49:40;;;;;;;;;;;;;;;5.18;51.50;102171.16;5374868;32;33912;-63
2024/01/28 03:52:42;;;;;;;;;;;;;;;5.41;51.05;102169.69;5356166;32;34475;-65
2024/01/28 03:55:45;;;;;;;;;;;;;;;5.30;51.20;102184.34;5369327;32;34759;-66
2024/01/28 03:58:47;;;;;;;;;;;;;;;4.84;52.39;102177.72;5373713;32;35082;-63
2024/01/28 04:01:49;;;;;;;;;;;;;;;4.56;53.57;102179.91;5363044;32;34989;-63
2024/01/28 04:04:52;;;;;;;;;;;;;;;4.54;53.22;102189.44;5372573;32;34727;-64
2024/01/28 04:07:54;;;;;;;;;;;;;;;5.22;51.74;102186.00;5369365;32;34397;-65
2024/01/28 04:10:56;;;;;;;;;;;;;;;5.16;51.67;102188.53;5360196;32;34451;-64
2024/01/28 04:13:58;;;;;;;;;;;;;;;4.86;52.73;102184.69;5355988;32;35053;-65
2024/01/28 04:17:00;;;;;;;;;;;;;;;5.40;50.96;102187.91;5369645;32;34435;-66
2024/01/28 04:20:04;;;;;;;;;;;;;;;5.21;50.99;102189.44;5373925;32;35014;-66
2024/01/28 04:23:06;;;;;;;;;;;;;;;4.86;51.93;102184.69;5363813;32;34235;-62
2024/01/28 04:26:09;;;;;;;;;;;;;;;5.50;50.42;102187.16;5352339;32;34468;-65
2024/01/28 04:29:11;;;;;;;;;;;;;;;4.47;53.09;102199.75;5367677;32;35740;-62
2024/01/28 04:32:14;;;;;;;;;;;;;;;4.39;53.16;102201.38;5373321;32;34657;-67
2024/01/28 04:35:16;;;;;;;;;;;;;;;4.85;52.87;102202.91;5369693;32;35092;-65
2024/01/28 04:38:18;;;;;;;;;;;;;;;5.40;51.15;102204.44;5352662;32;35742;-67
2024/01/28 04:41:20;;;;;;;;;;;;;;;4.81;51.99;102204.56;5367198;32;34652;-65
2024/01/28 04:44:23;;;;;;;;;;;;;;;4.43;53.45;102206.63;5369493;32;34878;-62
2024/01/28 04:47:25;;;;;;;;;;;;;;;4.85;52.73;102208.97;5359699;32;34996;-62
2024/01/28 04:50:27;;;;;;;;;;;;;;;4.58;53.85;102212.09;5369416;32;34632;-63
2024/01/28 04:53:29;;;;;;;;;;;;;;;4.60;53.62;102210.38;5372579;32;35289;-65
2024/01/28 04:56:32;;;;;;;;;;;;;;;4.56;54.23;102212.91;5368758;32;34256;-66
2024/01/28 04:59:34;;;;;;;;;;;;;;;4.72;53.30;102211.41;5369275;32;35603;-65
2024/01/28 05:02:37;;;;;;;;;;;;;;;4.51;54.80;102217.19;5372355;32;34959;-65
2024/01/28 05:05:39;;;;;;;;;;;;;;;4.79;53.96;102224.53;5367938;32;34412;-65
2024/01/28 05:08:41;;;;;;;;;;;;;;;4.38;55.31;102230.84;5373484;32;34957;-65
2024/01/28 05:11:44;;;;;;;;;;;;;;;4.79;54.33;102219.31;5365946;32;34984;-62
2024/01/28 05:14:46;;;;;;;;;;;;;;;4.29;55.90;102234.19;5373082;32;35204;-62
2024/01/28 05:17:48;;;;;;;;;;;;;;;4.12;56.20;102239.09;5355977;32;34823;-66
2024/01/28 05:20:51;;;;;;;;;;;;;;;4.79;54.62;102236.69;5369569;32;34808;-65
2024/01/28 05:23:53;;;;;;;;;;;;;;;4.24;55.38;102241.91;5376328;32;34381;-62
2024/01/28 05:26:56;;;;;;;;;;;;;;;3.74;58.03;102241.06;5364944;32;34941;-65
2024/01/28 05:29:58;;;;;;;;;;;;;;;4.32;56.63;102242.94;5372496;32;34857;-63
2024/01/28 05:33:01;;;;;;;;;;;;;;;4.27;56.72;102239.38;5354932;32;34740;-65
2024/01/28 05:36:21;;;;;;;;;;;;;;;4.91;55.38;102239.47;5372249;32;34972;-62
2024/01/28 05:39:23;;;;;;;;;;;;;;;4.63;55.75;102238.16;5366997;32;35349;-63
2024/01/28 05:42:26;;;;;;;;;;;;;;;4.24;57.27;102248.84;5368917;32;34997;-61
2024/01/28 05:45:28;;;;;;;;;;;;;;;4.51;56.54;102249.31;5373701;32;34621;-62
2024/01/28 05:48:31;;;;;;;;;;;;;;;4.62;56.35;102265.94;5368550;32;35001;-65
2024/01/28 05:51:38;;;;;;;;;;;;;;;4.44;57.27;102257.84;5359093;32;35088;-67
2024/01/28 05:54:44;;;;;;;;;;;;;;;4.33;57.72;102262.03;5368994;32;34671;-62
2024/01/28 05:57:46;;;;;;;;;;;;;;;4.41;57.44;102263.03;5367259;32;36361;-62
2024/01/28 06:00:48;;;;;;;;;;;;;;;4.45;57.53;102274.37;5373633;32;34488;-65
2024/01/28 06:03:51;;;;;;;;;;;;;;;3.96;59.24;102276.12;5367042;32;34643;-66
2024/01/28 06:06:53;;;;;;;;;;;;;;;4.15;59.02;102273.00;5358256;32;34389;-65
2024/01/28 06:09:55;;;;;;;;;;;;;;;4.55;58.03;102287.53;5354001;32;34893;-63
2024/01/28 06:12:58;;;;;;;;;;;;;;;4.74;57.28;102287.84;5372579;32;35047;-65
2024/01/28 06:16:00;;;;;;;;;;;;;;;4.03;59.75;102298.78;5368030;32;35051;-62
2024/01/28 06:19:02;;;;;;;;;;;;;;;4.29;59.34;102296.66;5368264;32;35585;-63
2024/01/28 06:22:05;;;;;;;;;;;;;;;4.18;59.36;102292.97;5366811;32;34847;-66
2024/01/28 06:25:07;;;;;;;;;;;;;;;4.49;58.45;102299.59;5360268;32;34322;-63
2024/01/28 06:28:10;;;;;;;;;;;;;;;5.22;56.82;102298.09;5355816;32;35077;-62
2024/01/28 06:31:13;;;;;;;;;;;;;;;4.94;57.56;102306.38;5354179;32;35522;-65
2024/01/28 06:34:15;;;;;;;;;;;;;;;5.05;57.82;102294.37;5358204;32;34784;-65
2024/01/28 06:37:17;;;;;;;;;;;;;;;4.42;58.84;102301.22;5368372;32;34958;-63
2024/01/28 06:40:19;;;;;;;;;;;;;;;4.42;59.72;102300.34;5359684;32;34700;-65
2024/01/28 06:43:22;;;;;;;;;;;;;;;4.61;59.22;102302.41;5372166;32;35273;-62
2024/01/28 06:46:24;;;;;;;;;;;;;;;4.70;59.50;102312.06;5367693;32;34352;-66
2024/01/28 06:49:27;;;;;;;;;;;;;;;4.70;59.50;102317.28;5372730;32;34663;-65
2024/01/28 06:52:29;;;;;;;;;;;;;;;4.49;60.30;102318.69;5367268;32;35533;-66
2024/01/28 06:55:31;;;;;;;;;;;;;;;5.11;58.68;102317.91;5357700;32;34584;-64
2024/01/28 06:58:33;;;;;;;;;;;;;;;5.94;55.92;102314.63;5354055;32;34990;-63
2024/01/28 07:01:35;;;;;;;;;;;;;;;6.02;55.29;102306.88;5352884;32;35315;-63
2024/01/28 07:04:38;;;;;;;;;;;;;;;5.54;56.89;102326.28;5370446;32;34930;-66
2024/01/28 07:07:40;;;;;;;;;;;;;;;5.98;54.85;102319.00;5366579;32;35051;-64
2024/01/28 07:10:43;;;;;;;;;;;;;;;6.15;55.04;102314.84;5371598;32;35461;-66
2024/01/28 07:13:45;;;;;;;;;;;;;;;6.36;54.41;102321.13;5367517;32;34651;-64
2024/01/28 07:16:47;;;;;;;;;;;;;;;6.12;55.15;102317.44;5357817;32;34814;-66
2024/01/28 07:19:49;;;;;;;;;;;;;;;5.63;56.25;102321.22;5371922;32;35180;-67
2024/01/28 07:22:51;;;;;;;;;;;;;;;6.28;54.79;102320.19;5380431;32;34743;-64
2024/01/28 07:25:53;;;;;;;;;;;;;;;5.94;55.64;102325.06;5372231;32;34540;-67
2024/01/28 07:28:55;;;;;;;;;;;;;;;6.03;55.32;102329.50;5368504;32;35662;-66
2024/01/28 07:31:58;;;;;;;;;;;;;;;6.13;55.48;102329.62;5373768;32;34813;-66
2024/01/28 07:35:00;;;;;;;;;;;;;;;6.16;55.54;102334.00;5355630;32;35038;-67
2024/01/28 07:38:03;;;;;;;;;;;;;;;6.43;54.79;102330.75;5370972;32;34919;-65
2024/01/28 07:41:06;;;;;;;;;;;;;;;5.11;57.95;102341.38;5371913;32;35234;-64
2024/01/28 07:44:08;;;;;;;;;;;;;;;5.47;57.55;102340.97;5356343;32;34417;-63
2024/01/28 07:47:10;;;;;;;;;;;;;;;5.35;59.00;102331.28;5374127;32;34435;-65
2024/01/28 07:50:12;;;;;;;;;;;;;;;4.94;60.14;102341.13;5369946;32;34401;-66
2024/01/28 07:53:14;;;;;;;;;;;;;;;5.23;59.33;102351.97;5374359;32;34493;-62
2024/01/28 07:56:17;;;;;;;;;;;;;;;6.13;57.00;102344.41;5367782;32;34779;-68
2024/01/28 07:59:19;;;;;;;;;;;;;;;5.74;57.13;102345.69;5371052;32;34299;-66
2024/01/28 08:02:21;;;;;;;;;;;;;;;6.19;57.01;102354.94;5370420;32;34825;-63
2024/01/28 08:05:25;;;;;;;;;;;;;;;6.53;55.67;102357.84;5354325;32;34863;-64
2024/01/28 08:08:27;;;;;;;;;;;;;;;6.57;55.58;102357.00;5373864;32;34398;-66
2024/01/28 08:11:29;;;;;;;;;;;;;;;6.92;54.18;102363.41;5368985;32;34983;-65
2024/01/28 08:14:31;;;;;;;;;;;;;;;6.37;55.90;102368.16;5373697;32;34891;-64
2024/01/28 08:17:33;;;;;;;;;;;;;;;6.07;57.21;102370.47;5369802;32;35224;-64
2024/01/28 08:20:37;;;;;;;;;;;;;;;6.17;57.28;102372.28;5370697;32;35272;-68
2024/01/28 08:23:39;;;;;;;;;;;;;;;6.02;56.83;102382.59;5380817;32;34820;-67
2024/01/28 08:26:42;;;;;;;;;;;;;;;6.37;57.18;102385.56;5366429;32;34734;-66
2024/01/28 08:29:44;;;;;;;;;;;;;;;6.17;56.88;102383.63;5371375;32;34984;-63
2024/01/28 08:32:46;;;;;;;;;;;;;;;6.16;56.72;102371.41;5369445;32;34855;-65
2024/01/28 08:35:48;;;;;;;;;;;;;;;6.03;57.04;102373.88;5373773;32;34418;-62
2024/01/28 08:38:50;;;;;;;;;;;;;;;6.89;54.41;102366.00;5366045;32;35765;-64
2024/01/28 08:41:54;;;;;;;;;;;;;;;6.70;55.10;102369.34;5370939;32;34407;-66
2024/01/28 08:44:57;;;;;;;;;;;;;;;6.86;54.96;102383.41;5374022;32;34978;-66
2024/01/28 08:48:00;;;;;;;;;;;;;;;7.01;53.36;102386.13;5369470;32;35631;-67
2024/01/28 08:51:02;;;;;;;;;;;;;;;6.19;56.20;102391.47;5359284;32;34715;-63
2024/01/28 08:54:05;;;;;;;;;;;;;;;6.57;55.49;102393.59;5369111;32;35556;-63
2024/01/28 08:57:07;;;;;;;;;;;;;;;6.61;55.18;102396.25;5372438;32;34596;-62
2024/01/28 09:00:11;;;;;;;;;;;;;;;6.95;53.69;102394.78;5369169;32;35177;-66
2024/01/28 09:03:14;;;;;;;;;;;;;;;7.69;51.98;102401.38;5352273;32;35161;-65
2024/01/28 09:06:16;;;;;;;;;;;;;;;7.57;51.89;102403.91;5358613;32;34731;-63
2024/01/28 09:09:19;;;;;;;;;;;;;;;7.23;53.54;102413.31;5355432;32;34836;-67
2024/01/28 09:12:21;;;;;;;;;;;;;;;7.36;52.49;102407.28;5373156;32;34809;-62
2024/01/28 09:15:23;;;;;;;;;;;;;;;7.67;51.74;102418.81;5354985;32;35097;-67
2024/01/28 09:18:26;;;;;;;;;;;;;;;7.72;52.09;102418.81;5348556;32;35353;-65
2024/01/28 09:21:28;;;;;;;;;;;;;;;7.87;51.39;102413.69;5372951;32;35764;-67
2024/01/28 09:24:30;;;;;;;;;;;;;;;7.08;52.93;102421.91;5355803;32;34467;-63
2024/01/28 09:27:32;;;;;;;;;;;;;;;7.23;53.33;102423.78;5369991;32;34427;-62
2024/01/28 09:30:35;;;;;;;;;;;;;;;7.61;52.11;102426.63;5354338;32;34472;-66
2024/01/28 09:33:37;;;;;;;;;;;;;;;7.78;51.39;102434.56;5373221;32;34435;-64
2024/01/28 09:36:40;;;;;;;;;;;;;;;7.79;50.99;102433.69;5354928;32;35000;-65
2024/01/28 09:39:42;;;;;;;;;;;;;;;7.03;53.04;102434.09;5351958;32;34402;-66
2024/01/28 09:43:03;;;;;;;;;;;;;;;8.04;51.08;102440.78;5369241;32;35059;-63
2024/01/28 09:46:06;;;;;;;;;;;;;;;7.82;51.10;102446.81;5368181;32;34411;-64
2024/01/28 09:49:11;;;;;;;;;;;;;;;7.12;52.62;102449.84;5373266;32;34267;-65
2024/01/28 09:52:14;;;;;;;;;;;;;;;6.89;53.67;102444.44;5367879;32;34076;-68
2024/01/28 09:55:16;;;;;;;;;;;;;;;7.52;51.99;102443.13;5358195;32;35436;-63
2024/01/28 09:58:18;;;;;;;;;;;;;;;8.00;50.15;102446.91;5373779;32;34213;-67
2024/01/28 10:01:20;;;;;;;;;;;;;;;7.88;50.85;102445.09;5365482;32;35664;-66
2024/01/28 10:04:23;;;;;;;;;;;;;;;7.97;50.93;102457.34;5355517;32;35142;-65
2024/01/28 10:07:26;;;;;;;;;;;;;;;8.39;49.69;102451.44;5367878;32;34390;-66
2024/01/28 10:10:28;;;;;;;;;;;;;;;8.28;49.49;102457.47;5372925;32;34773;-65
2024/01/28 10:13:30;;;;;;;;;;;;;;;7.79;50.65;102457.25;5354387;32;34553;-67
2024/01/28 10:16:32;;;;;;;;;;;;;;;8.90;48.00;102438.41;5372938;32;34828;-66
2024/01/28 10:19:35;;;;;;;;;;;;;;;9.40;46.82;102434.84;5354436;32;34376;-62
2024/01/28 10:22:39;;;;;;;;;;;;;;;9.54;46.40;102437.50;5379201;32;34533;-64
2024/01/28 10:25:41;;;;;;;;;;;;;;;9.33;46.69;102438.38;5356043;32;35778;-65
2024/01/28 10:28:43;;;;;;;;;;;;;;;9.45;46.53;102430.50;5363702;32;34419;-63
2024/01/28 10:31:46;;;;;;;;;;;;;;;9.42;47.26;102434.00;5358297;32;34334;-67
2024/01/28 10:34:48;;;;;;;;;;;;;;;10.35;46.07;102424.03;5368553;32;35256;-64
2024/01/28 10:37:54;;;;;;;;;;;;;;;12.14;41.65;102420.63;5372314;32;34320;-66
2024/01/28 10:40:56;;;;;;;;;;;;;;;15.24;35.73;102397.75;5347580;32;34300;-66
2024/01/28 10:44:07;;;;;;;;;;;;;;;14.77;34.38;102394.56;5368021;32;35122;-67
2024/01/28 10:47:09;;;;;;;;;;;;;;;12.22;38.21;102405.56;5373035;32;34483;-68
2024/01/28 10:50:13;;;;;;;;;;;;;;;16.74;32.29;102389.78;5354346;32;34707;-64
2024/01/28 10:53:16;;;;;;;;;;;;;;;17.85;30.05;102386.75;5375465;32;35427;-62
2024/01/28 10:56:18;;;;;;;;;;;;;;;18.34;28.58;102383.03;5369401;32;35418;-68
2024/01/28 10:59:20;;;;;;;;;;;;;;;16.36;31.18;102384.78;5360179;32;35489;-67
2024/01/28 11:02:22;;;;;;;;;;;;;;;19.38;27.06;102377.81;5370732;32;34531;-67
2024/01/28 11:05:25;;;;;;;;;;;;;;;19.70;25.86;102377.25;5354676;32;34984;-64
2024/01/28 11:08:27;;;;;;;;;;;;;;;20.13;25.36;102367.25;5374428;32;34460;-66
2024/01/28 11:11:32;;;;;;;;;;;;;;;20.68;24.76;102369.91;5371826;32;35566;-67
2024/01/28 11:14:34;;;;;;;;;;;;;;;18.38;27.42;102378.47;5367645;32;35087;-65
2024/01/28 11:17:37;;;;;;;;;;;;;;;16.89;30.02;102384.88;5370370;32;35592;-65
2024/01/28 11:20:39;;;;;;;;;;;;;;;16.82;30.78;102370.06;5372697;32;35897;-63
2024/01/28 11:23:42;;;;;;;;;;;;;;;14.69;33.40;102389.47;5377796;32;34990;-64
2024/01/28 11:26:46;;;;;;;;;;;;;;;15.61;32.05;102385.25;5351636;32;35345;-65
2024/01/28 11:29:48;;;;;;;;;;;;;;;17.51;28.99;102374.66;5359553;32;35875;-65
2024/01/28 11:32:52;;;;;;;;;;;;;;;16.28;30.54;102370.91;5355646;32;35154;-63
2024/01/28 11:35:54;;;;;;;;;;;;;;;16.70;29.84;102369.56;5378254;32;35109;-66
2024/01/28 11:39:02;;;;;;;;;;;;;;;16.31;29.77;102373.47;5349786;32;35441;-65
2024/01/28 11:42:05;;;;;;;;;;;;;;;16.46;29.86;102365.87;5369021;32;34808;-69
2024/01/28 11:45:07;;;;;;;;;;;;;;;17.94;28.25;102348.28;5373410;32;34526;-67
2024/01/28 11:48:10;;;;;;;;;;;;;;;19.65;25.38;102351.75;5368994;32;35226;-67
2024/01/28 11:51:13;;;;;;;;;;;;;;;19.54;25.66;102349.53;5373854;32;35097;-64
2024/01/28 11:54:15;;;;;;;;;;;;;;;16.22;29.44;102361.34;5369412;32;35143;-67
2024/01/28 11:57:17;;;;;;;;;;;;;;;15.31;31.89;102368.41;5358464;32;34668;-64
2024/01/28 12:00:20;;;;;;;;;;;;;;;13.72;34.18;102380.16;5355213;32;34542;-67
2024/01/28 12:03:23;;;;;;;;;;;;;;;13.58;34.21;102378.66;5368324;32;35203;-67
2024/01/28 12:06:27;;;;;;;;;;;;;;;13.52;33.17;102367.34;5359112;32;36364;-63
2024/01/28 12:09:30;;;;;;;;;;;;;;;14.31;32.08;102358.59;5367183;32;34405;-64
2024/01/28 12:12:35;;;;;;;;;;;;;;;14.62;31.20;102350.81;5373522;32;34339;-67
2024/01/28 12:15:38;;;;;;;;;;;;;;;15.82;29.38;102345.78;5368669;32;35159;-68
2024/01/28 12:18:40;;;;;;;;;;;;;;;16.25;29.00;102362.13;5347262;32;35041;-67
2024/01/28 12:21:42;;;;;;;;;;;;;;;17.80;27.41;102359.47;5370299;32;35511;-65
2024/01/28 12:24:45;;;;;;;;;;;;;;;17.45;27.05;102358.06;5364044;32;34235;-64
2024/01/28 12:27:48;;;;;;;;;;;;;;;21.61;22.76;102334.75;5370982;32;35405;-68
2024/01/28 12:30:53;;;;;;;;;;;;;;;18.06;25.91;102345.16;5355307;32;34777;-65
2024/01/28 12:33:55;;;;;;;;;;;;;;;20.71;23.29;102342.16;5360072;32;34792;-68
2024/01/28 12:36:57;;;;;;;;;;;;;;;18.91;25.23;102336.31;5354200;32;34608;-69
2024/01/28 12:39:59;;;;;;;;;;;;;;;18.55;25.53;102335.19;5372703;32;34443;-66
2024/01/28 12:43:02;;;;;;;;;;;;;;;16.51;28.41;102337.41;5356454;32;34708;-67
2024/01/28 12:46:04;;;;;;;;;;;;;;;15.18;30.49;102351.97;5354951;32;35178;-66
2024/01/28 12:49:08;;;;;;;;;;;;;;;16.06;29.48;102342.41;5374135;32;35383;-68
2024/01/28 12:52:14;;;;;;;;;;;;;;;16.68;28.99;102331.53;5369228;32;36160;-66
2024/01/28 12:55:16;;;;;;;;;;;;;;;16.64;28.41;102335.22;5373337;32;34371;-64
2024/01/28 12:58:18;;;;;;;;;;;;;;;18.17;26.66;102332.31;5354146;32;35219;-65
2024/01/28 13:01:20;;;;;;;;;;;;;;;18.60;26.51;102328.72;5370928;32;34421;-64
2024/01/28 13:04:23;;;;;;;;;;;;;;;18.96;25.42;102328.13;5369495;32;35123;-66
2024/01/28 13:07:25;;;;;;;;;;;;;;;18.69;25.47;102335.50;5368217;32;34307;-67
2024/01/28 13:10:27;;;;;;;;;;;;;;;17.02;27.87;102338.37;5373906;32;34492;-66
2024/01/28 13:13:31;;;;;;;;;;;;;;;17.56;27.80;102332.84;5353359;32;35002;-64
2024/01/28 13:16:34;;;;;;;;;;;;;;;18.57;25.69;102338.66;5372319;32;35199;-67
2024/01/28 13:19:36;;;;;;;;;;;;;;;21.44;22.38;102342.81;5354399;32;34659;-64
2024/01/28 13:22:41;;;;;;;;;;;;;;;21.96;22.00;102337.28;5380576;32;34538;-65
2024/01/28 13:25:47;;;;;;;;;;;;;;;23.85;19.74;102327.75;5361360;32;34824;-65
2024/01/28 13:28:49;;;;;;;;;;;;;;;18.75;25.19;102345.91;5352502;32;34268;-68
2024/01/28 13:31:51;;;;;;;;;;;;;;;18.97;25.57;102350.31;5372717;32;34405;-66
2024/01/28 13:34:53;;;;;;;;;;;;;;;21.66;22.25;102337.19;5368301;32;35629;-66
2024/01/28 13:37:56;;;;;;;;;;;;;;;22.02;21.48;102331.56;5373052;32;34942;-63
2024/01/28 13:40:58;;;;;;;;;;;;;;;20.03;23.80;102341.94;5359903;32;35416;-65
2024/01/28 13:44:00;;;;;;;;;;;;;;;16.78;27.96;102350.69;5355964;32;35329;-69
2024/01/28 13:47:03;;;;;;;;;;;;;;;17.74;26.95;102344.59;5372057;32;35158;-67
2024/01/28 13:50:06;;;;;;;;;;;;;;;19.99;23.79;102337.69;5355045;32;35056;-68
2024/01/28 13:53:10;;;;;;;;;;;;;;;22.48;21.12;102327.19;5358659;32;35283;-65
2024/01/28 13:56:12;;;;;;;;;;;;;;;22.67;20.85;102325.13;5340898;32;34964;-67
2024/01/28 13:59:14;;;;;;;;;;;;;;;22.78;20.75;102321.78;5358858;32;35066;-66
2024/01/28 14:02:18;;;;;;;;;;;;;;;22.21;21.32;102334.09;5353777;32;35832;-69
2024/01/28 14:05:20;;;;;;;;;;;;;;;19.22;25.05;102332.31;5352532;32;34328;-64
2024/01/28 14:08:23;;;;;;;;;;;;;;;18.93;25.40;102330.91;5358312;32;34643;-65
2024/01/28 14:11:25;;;;;;;;;;;;;;;18.64;25.64;102337.47;5368071;32;34874;-67
2024/01/28 14:14:27;;;;;;;;;;;;;;;15.59;30.41;102349.09;5346999;32;34764;-64
2024/01/28 14:17:31;;;;;;;;;;;;;;;18.06;26.98;102342.50;5357490;32;34715;-67
2024/01/28 14:20:36;;;;;;;;;;;;;;;19.32;25.08;102341.63;5371454;32;34926;-66
2024/01/28 14:23:38;;;;;;;;;;;;;;;17.87;26.44;102335.22;5379226;32;35268;-68
2024/01/28 14:26:40;;;;;;;;;;;;;;;16.69;27.95;102340.38;5353653;32;34979;-64
2024/01/28 14:29:42;;;;;;;;;;;;;;;15.02;30.72;102348.00;5372785;32;34790;-64
2024/01/28 14:32:47;;;;;;;;;;;;;;;15.68;29.71;102347.06;5370005;32;34685;-67
2024/01/28 14:35:50;;;;;;;;;;;;;;;13.27;33.50;102361.66;5374366;32;36826;-64
2024/01/28 14:38:52;;;;;;;;;;;;;;;13.88;33.15;102358.66;5369268;32;34384;-64
2024/01/28 14:41:54;;;;;;;;;;;;;;;14.18;33.05;102351.84;5373946;32;35044;-66
2024/01/28 14:44:57;;;;;;;;;;;;;;;13.51;34.22;102357.66;5371309;32;34895;-64
2024/01/28 14:48:00;;;;;;;;;;;;;;;13.28;34.76;102354.59;5370346;32;34259;-67
2024/01/28 14:51:04;;;;;;;;;;;;;;;13.31;34.62;102359.81;5360264;32;34844;-68
2024/01/28 14:54:08;;;;;;;;;;;;;;;12.80;35.72;102357.19;5369691;32;36138;-66
2024/01/28 14:57:11;;;;;;;;;;;;;;;12.76;35.92;102363.44;5373381;32;34827;-67
2024/01/28 15:00:14;;;;;;;;;;;;;;;12.60;36.29;102357.53;5369640;32;34754;-67
2024/01/28 15:03:19;;;;;;;;;;;;;;;11.99;37.45;102373.41;5356702;32;34429;-66
2024/01/28 15:06:22;;;;;;;;;;;;;;;12.06;37.89;102375.06;5371341;32;35563;-65
2024/01/28 15:09:24;;;;;;;;;;;;;;;10.94;40.45;102373.63;5355732;32;35568;-67
2024/01/28 15:12:26;;;;;;;;;;;;;;;11.15;40.56;102372.59;5360535;32;34955;-64
2024/01/28 15:15:29;;;;;;;;;;;;;;;11.09;40.96;102377.91;5369816;32;35037;-67
2024/01/28 15:18:32;;;;;;;;;;;;;;;10.73;42.11;102382.59;5373910;32;34330;-64
2024/01/28 15:21:34;;;;;;;;;;;;;;;10.69;42.55;102375.63;5373099;32;34684;-67
2024/01/28 15:24:36;;;;;;;;;;;;;;;10.07;44.40;102383.88;5373398;32;34363;-66
2024/01/28 15:27:38;;;;;;;;;;;;;;;9.66;45.65;102393.69;5355798;32;34235;-67
2024/01/28 15:30:41;;;;;;;;;;;;;;;9.30;46.68;102385.91;5368429;32;35113;-67
2024/01/28 15:33:43;;;;;;;;;;;;;;;9.63;46.55;102385.81;5373890;32;34948;-66
2024/01/28 15:36:45;;;;;;;;;;;;;;;9.00;48.13;102390.31;5369337;32;34959;-67
2024/01/28 15:39:47;;;;;;;;;;;;;;;8.33;50.44;102383.25;5370111;32;35558;-67
2024/01/28 15:42:50;;;;;;;;;;;;;;;8.36;50.31;102388.53;5355833;32;35288;-63
2024/01/28 15:45:52;;;;;;;;;;;;;;;9.55;47.88;102390.22;5369867;32;35039;-67